sensor_id;sensor_type;location;lat;lon;timestamp;temperature;humidity
52919;DHT22;38793;52.690;6.812;2024-01-30T00:01:25;7.40;99.90
52919;DHT22;38793;52.690;6.812;2024-01-30T00:03:51;7.40;99.90
52919;DHT22;38793;52.690;6.812;2024-01-30T00:06:20;7.40;99.90
52919;DHT22;38793;52.690;6.812;2024-01-30T00:08:49;7.50;99.90
52919;DHT22;38793;52.690;6.812;2024-01-30T00:11:15;7.60;99.90
52919;DHT22;38793;52.690;6.812;2024-01-30T00:13:41;7.60;99.90
52919;DHT22;38793;52.690;6.812;2024-01-30T00:16:07;7.60;99.90
52919;DHT22;38793;52.690;6.812;2024-01-30T00:18:34;7.60;99.90
52919;DHT22;38793;52.690;6.812;2024-01-30T00:20:59;7.60;99.90
52919;DHT22;38793;52.690;6.812;2024-01-30T00:23:25;7.70;99.90
52919;DHT22;38793;52.690;6.812;2024-01-30T00:25:50;7.70;99.90
52919;DHT22;38793;52.690;6.812;2024-01-30T00:28:16;7.70;99.90
52919;DHT22;38793;52.690;6.812;2024-01-30T00:30:42;7.70;99.90
52919;DHT22;38793;52.690;6.812;2024-01-30T00:33:08;7.70;99.90
52919;DHT22;38793;52.690;6.812;2024-01-30T00:35:34;7.70;99.90
52919;DHT22;38793;52.690;6.812;2024-01-30T00:38:00;7.70;99.90
52919;DHT22;38793;52.690;6.812;2024-01-30T00:40:26;7.70;99.90
52919;DHT22;38793;52.690;6.812;2024-01-30T00:42:51;7.70;99.90
52919;DHT22;38793;52.690;6.812;2024-01-30T00:45:17;7.70;99.90
52919;DHT22;38793;52.690;6.812;2024-01-30T00:47:43;7.70;99.90
52919;DHT22;38793;52.690;6.812;2024-01-30T00:50:09;7.70;99.90
52919;DHT22;38793;52.690;6.812;2024-01-30T00:52:35;7.70;99.90
52919;DHT22;38793;52.690;6.812;2024-01-30T00:55:01;7.70;99.90
52919;DHT22;38793;52.690;6.812;2024-01-30T00:57:28;7.70;99.90
52919;DHT22;38793;52.690;6.812;2024-01-30T00:59:53;7.70;99.90
52919;DHT22;38793;52.690;6.812;2024-01-30T01:02:19;7.70;99.90
52919;DHT22;38793;52.690;6.812;2024-01-30T01:04:45;7.60;99.90
52919;DHT22;38793;52.690;6.812;2024-01-30T01:07:11;7.70;99.90
52919;DHT22;38793;52.690;6.812;2024-01-30T01:09:37;7.60;99.90
52919;DHT22;38793;52.690;6.812;2024-01-30T01:12:03;7.60;99.90
52919;DHT22;38793;52.690;6.812;2024-01-30T01:14:29;7.60;99.90
52919;DHT22;38793;52.690;6.812;2024-01-30T01:16:55;7.60;99.90
52919;DHT22;38793;52.690;6.812;2024-01-30T01:19:21;7.60;99.90
52919;DHT22;38793;52.690;6.812;2024-01-30T01:21:47;7.60;99.90
52919;DHT22;38793;52.690;6.812;2024-01-30T01:24:13;7.60;99.90
52919;DHT22;38793;52.690;6.812;2024-01-30T01:26:39;7.60;99.90
52919;DHT22;38793;52.690;6.812;2024-01-30T01:29:06;7.60;99.90
52919;DHT22;38793;52.690;6.812;2024-01-30T01:31:36;7.70;99.90
52919;DHT22;38793;52.690;6.812;2024-01-30T01:34:06;7.70;99.90
52919;DHT22;38793;52.690;6.812;2024-01-30T01:36:31;7.70;99.90
52919;DHT22;38793;52.690;6.812;2024-01-30T01:38:57;7.70;99.90
52919;DHT22;38793;52.690;6.812;2024-01-30T01:41:22;7.70;99.90
52919;DHT22;38793;52.690;6.812;2024-01-30T01:43:48;7.70;99.90
52919;DHT22;38793;52.690;6.812;2024-01-30T01:46:14;7.70;99.90
52919;DHT22;38793;52.690;6.812;2024-01-30T01:48:40;7.70;99.90
52919;DHT22;38793;52.690;6.812;2024-01-30T01:51:06;7.70;99.90
52919;DHT22;38793;52.690;6.812;2024-01-30T01:53:32;7.70;99.90
52919;DHT22;38793;52.690;6.812;2024-01-30T01:55:58;7.70;99.90
52919;DHT22;38793;52.690;6.812;2024-01-30T01:58:26;7.70;99.90
52919;DHT22;38793;52.690;6.812;2024-01-30T02:00:54;7.70;99.90
52919;DHT22;38793;52.690;6.812;2024-01-30T02:03:21;7.70;99.90
52919;DHT22;38793;52.690;6.812;2024-01-30T02:05:47;7.70;99.90
52919;DHT22;38793;52.690;6.812;2024-01-30T02:08:12;7.70;99.90
52919;DHT22;38793;52.690;6.812;2024-01-30T02:10:38;7.70;99.90
52919;DHT22;38793;52.690;6.812;2024-01-30T02:13:04;7.70;99.90
52919;DHT22;38793;52.690;6.812;2024-01-30T02:15:30;7.70;99.90
52919;DHT22;38793;52.690;6.812;2024-01-30T02:17:56;7.70;99.90
52919;DHT22;38793;52.690;6.812;2024-01-30T02:20:24;7.70;99.90
52919;DHT22;38793;52.690;6.812;2024-01-30T02:22:52;7.70;99.90
52919;DHT22;38793;52.690;6.812;2024-01-30T02:25:19;7.70;99.90
52919;DHT22;38793;52.690;6.812;2024-01-30T02:27:45;7.70;99.90
52919;DHT22;38793;52.690;6.812;2024-01-30T02:30:11;7.80;99.90
52919;DHT22;38793;52.690;6.812;2024-01-30T02:32:37;7.80;99.90
52919;DHT22;38793;52.690;6.812;2024-01-30T02:35:02;7.70;99.90
52919;DHT22;38793;52.690;6.812;2024-01-30T02:37:28;7.80;99.90
52919;DHT22;38793;52.690;6.812;2024-01-30T02:39:54;7.80;99.90
52919;DHT22;38793;52.690;6.812;2024-01-30T02:42:19;7.80;99.90
52919;DHT22;38793;52.690;6.812;2024-01-30T02:44:45;7.80;99.90
52919;DHT22;38793;52.690;6.812;2024-01-30T02:47:10;7.80;99.90
52919;DHT22;38793;52.690;6.812;2024-01-30T02:49:36;7.80;99.90
52919;DHT22;38793;52.690;6.812;2024-01-30T02:52:02;7.80;99.90
52919;DHT22;38793;52.690;6.812;2024-01-30T02:54:28;7.80;99.90
52919;DHT22;38793;52.690;6.812;2024-01-30T02:56:55;7.80;99.90
52919;DHT22;38793;52.690;6.812;2024-01-30T02:59:21;7.80;99.90
52919;DHT22;38793;52.690;6.812;2024-01-30T03:01:47;7.80;99.90
52919;DHT22;38793;52.690;6.812;2024-01-30T03:04:13;7.80;99.90
52919;DHT22;38793;52.690;6.812;2024-01-30T03:06:39;7.80;99.90
52919;DHT22;38793;52.690;6.812;2024-01-30T03:09:04;7.80;99.90
52919;DHT22;38793;52.690;6.812;2024-01-30T03:11:30;7.80;99.90
52919;DHT22;38793;52.690;6.812;2024-01-30T03:13:56;7.80;99.90
52919;DHT22;38793;52.690;6.812;2024-01-30T03:16:21;7.80;99.90
52919;DHT22;38793;52.690;6.812;2024-01-30T03:18:47;7.80;99.90
52919;DHT22;38793;52.690;6.812;2024-01-30T03:21:14;7.90;99.90
52919;DHT22;38793;52.690;6.812;2024-01-30T03:23:39;7.90;99.90
52919;DHT22;38793;52.690;6.812;2024-01-30T03:26:05;7.90;99.90
52919;DHT22;38793;52.690;6.812;2024-01-30T03:28:32;7.90;99.90
52919;DHT22;38793;52.690;6.812;2024-01-30T03:30:57;7.90;99.90
52919;DHT22;38793;52.690;6.812;2024-01-30T03:33:23;7.90;99.90
52919;DHT22;38793;52.690;6.812;2024-01-30T03:35:48;7.90;99.90
52919;DHT22;38793;52.690;6.812;2024-01-30T03:38:14;8.00;99.90
52919;DHT22;38793;52.690;6.812;2024-01-30T03:40:40;8.00;99.90
52919;DHT22;38793;52.690;6.812;2024-01-30T03:43:05;8.00;99.90
52919;DHT22;38793;52.690;6.812;2024-01-30T03:45:31;7.90;99.90
52919;DHT22;38793;52.690;6.812;2024-01-30T03:47:56;7.90;99.90
52919;DHT22;38793;52.690;6.812;2024-01-30T03:50:22;7.90;99.90
52919;DHT22;38793;52.690;6.812;2024-01-30T03:52:48;7.90;99.90
52919;DHT22;38793;52.690;6.812;2024-01-30T03:55:13;7.90;99.90
52919;DHT22;38793;52.690;6.812;2024-01-30T03:57:39;7.90;99.90
52919;DHT22;38793;52.690;6.812;2024-01-30T04:00:05;7.90;99.90
52919;DHT22;38793;52.690;6.812;2024-01-30T04:02:31;7.90;99.90
52919;DHT22;38793;52.690;6.812;2024-01-30T04:04:57;7.90;99.90
52919;DHT22;38793;52.690;6.812;2024-01-30T04:07:22;7.90;99.90
52919;DHT22;38793;52.690;6.812;2024-01-30T04:09:48;7.90;99.90
52919;DHT22;38793;52.690;6.812;2024-01-30T04:12:13;7.90;99.90
52919;DHT22;38793;52.690;6.812;2024-01-30T04:14:39;7.90;99.90
52919;DHT22;38793;52.690;6.812;2024-01-30T04:17:05;7.90;99.90
52919;DHT22;38793;52.690;6.812;2024-01-30T04:19:30;7.80;99.90
52919;DHT22;38793;52.690;6.812;2024-01-30T04:21:56;7.90;99.90
52919;DHT22;38793;52.690;6.812;2024-01-30T04:24:22;7.90;99.90
52919;DHT22;38793;52.690;6.812;2024-01-30T04:26:47;7.90;99.90
52919;DHT22;38793;52.690;6.812;2024-01-30T04:29:13;7.90;99.90
52919;DHT22;38793;52.690;6.812;2024-01-30T04:31:38;7.90;99.90
52919;DHT22;38793;52.690;6.812;2024-01-30T04:34:04;7.90;99.90
52919;DHT22;38793;52.690;6.812;2024-01-30T04:36:29;8.00;99.90
52919;DHT22;38793;52.690;6.812;2024-01-30T04:38:55;8.00;99.90
52919;DHT22;38793;52.690;6.812;2024-01-30T04:41:21;8.00;99.90
52919;DHT22;38793;52.690;6.812;2024-01-30T04:43:46;8.00;99.90
52919;DHT22;38793;52.690;6.812;2024-01-30T04:46:12;8.10;99.90
52919;DHT22;38793;52.690;6.812;2024-01-30T04:48:37;8.10;99.90
52919;DHT22;38793;52.690;6.812;2024-01-30T04:51:03;8.20;99.90
52919;DHT22;38793;52.690;6.812;2024-01-30T04:53:30;8.20;99.90
52919;DHT22;38793;52.690;6.812;2024-01-30T04:55:56;8.10;99.90
52919;DHT22;38793;52.690;6.812;2024-01-30T04:58:22;8.20;99.90
52919;DHT22;38793;52.690;6.812;2024-01-30T05:00:47;8.20;99.90
52919;DHT22;38793;52.690;6.812;2024-01-30T05:03:18;8.20;99.90
52919;DHT22;38793;52.690;6.812;2024-01-30T05:05:44;8.20;99.90
52919;DHT22;38793;52.690;6.812;2024-01-30T05:08:10;8.20;99.90
52919;DHT22;38793;52.690;6.812;2024-01-30T05:10:35;8.20;99.90
52919;DHT22;38793;52.690;6.812;2024-01-30T05:13:01;8.20;99.90
52919;DHT22;38793;52.690;6.812;2024-01-30T05:15:26;8.20;99.90
52919;DHT22;38793;52.690;6.812;2024-01-30T05:17:52;8.20;99.90
52919;DHT22;38793;52.690;6.812;2024-01-30T05:20:17;8.20;99.90
52919;DHT22;38793;52.690;6.812;2024-01-30T05:22:43;8.30;99.90
52919;DHT22;38793;52.690;6.812;2024-01-30T05:25:11;8.30;99.90
52919;DHT22;38793;52.690;6.812;2024-01-30T05:27:37;8.30;99.90
52919;DHT22;38793;52.690;6.812;2024-01-30T05:30:03;8.30;99.90
52919;DHT22;38793;52.690;6.812;2024-01-30T05:32:29;8.30;99.90
52919;DHT22;38793;52.690;6.812;2024-01-30T05:34:54;8.20;99.90
52919;DHT22;38793;52.690;6.812;2024-01-30T05:37:20;8.30;99.90
52919;DHT22;38793;52.690;6.812;2024-01-30T05:39:46;8.30;99.90
52919;DHT22;38793;52.690;6.812;2024-01-30T05:42:12;8.30;99.90
52919;DHT22;38793;52.690;6.812;2024-01-30T05:44:37;8.30;99.90
52919;DHT22;38793;52.690;6.812;2024-01-30T05:47:03;8.30;99.90
52919;DHT22;38793;52.690;6.812;2024-01-30T05:49:28;8.30;99.90
52919;DHT22;38793;52.690;6.812;2024-01-30T05:51:54;8.30;99.90
52919;DHT22;38793;52.690;6.812;2024-01-30T05:54:20;8.30;99.90
52919;DHT22;38793;52.690;6.812;2024-01-30T05:56:45;8.30;99.90
52919;DHT22;38793;52.690;6.812;2024-01-30T05:59:11;8.30;99.90
52919;DHT22;38793;52.690;6.812;2024-01-30T06:01:36;8.30;99.90
52919;DHT22;38793;52.690;6.812;2024-01-30T06:04:02;8.30;99.90
52919;DHT22;38793;52.690;6.812;2024-01-30T06:06:28;8.30;99.90
52919;DHT22;38793;52.690;6.812;2024-01-30T06:08:53;8.30;99.90
52919;DHT22;38793;52.690;6.812;2024-01-30T06:11:21;8.30;99.90
52919;DHT22;38793;52.690;6.812;2024-01-30T06:13:47;8.30;99.90
52919;DHT22;38793;52.690;6.812;2024-01-30T06:16:12;8.30;99.90
52919;DHT22;38793;52.690;6.812;2024-01-30T06:18:39;8.30;99.90
52919;DHT22;38793;52.690;6.812;2024-01-30T06:21:05;8.30;99.90
52919;DHT22;38793;52.690;6.812;2024-01-30T06:23:31;8.30;99.90
52919;DHT22;38793;52.690;6.812;2024-01-30T06:25:56;8.30;99.90
52919;DHT22;38793;52.690;6.812;2024-01-30T06:28:22;8.30;99.90
52919;DHT22;38793;52.690;6.812;2024-01-30T06:30:47;8.30;99.90
52919;DHT22;38793;52.690;6.812;2024-01-30T06:33:13;8.30;99.90
52919;DHT22;38793;52.690;6.812;2024-01-30T06:35:40;8.30;99.90
52919;DHT22;38793;52.690;6.812;2024-01-30T06:38:05;8.30;99.90
52919;DHT22;38793;52.690;6.812;2024-01-30T06:40:31;8.30;99.90
52919;DHT22;38793;52.690;6.812;2024-01-30T06:42:57;8.30;99.90
52919;DHT22;38793;52.690;6.812;2024-01-30T06:45:22;8.30;99.90
52919;DHT22;38793;52.690;6.812;2024-01-30T06:47:48;8.30;99.90
52919;DHT22;38793;52.690;6.812;2024-01-30T06:50:13;8.30;99.90
52919;DHT22;38793;52.690;6.812;2024-01-30T06:52:39;8.30;99.90
52919;DHT22;38793;52.690;6.812;2024-01-30T06:55:05;8.30;99.90
52919;DHT22;38793;52.690;6.812;2024-01-30T06:57:31;8.30;99.90
52919;DHT22;38793;52.690;6.812;2024-01-30T06:59:56;8.40;99.90
52919;DHT22;38793;52.690;6.812;2024-01-30T07:02:22;8.40;99.90
52919;DHT22;38793;52.690;6.812;2024-01-30T07:04:47;8.30;99.90
52919;DHT22;38793;52.690;6.812;2024-01-30T07:07:13;8.40;99.90
52919;DHT22;38793;52.690;6.812;2024-01-30T07:09:40;8.40;99.90
52919;DHT22;38793;52.690;6.812;2024-01-30T07:12:06;8.30;99.90
52919;DHT22;38793;52.690;6.812;2024-01-30T07:14:32;8.30;99.90
52919;DHT22;38793;52.690;6.812;2024-01-30T07:16:58;8.40;99.90
52919;DHT22;38793;52.690;6.812;2024-01-30T07:19:24;8.40;99.90
52919;DHT22;38793;52.690;6.812;2024-01-30T07:21:49;8.40;99.90
52919;DHT22;38793;52.690;6.812;2024-01-30T07:24:15;8.40;99.90
52919;DHT22;38793;52.690;6.812;2024-01-30T07:26:40;8.40;99.90
52919;DHT22;38793;52.690;6.812;2024-01-30T07:29:06;8.50;99.90
52919;DHT22;38793;52.690;6.812;2024-01-30T07:31:32;8.50;99.90
52919;DHT22;38793;52.690;6.812;2024-01-30T07:33:57;8.40;99.90
52919;DHT22;38793;52.690;6.812;2024-01-30T07:36:23;8.50;99.90
52919;DHT22;38793;52.690;6.812;2024-01-30T07:38:48;8.50;99.90
52919;DHT22;38793;52.690;6.812;2024-01-30T07:41:14;8.50;99.90
52919;DHT22;38793;52.690;6.812;2024-01-30T07:43:40;8.50;99.90
52919;DHT22;38793;52.690;6.812;2024-01-30T07:46:05;8.50;99.90
52919;DHT22;38793;52.690;6.812;2024-01-30T07:48:33;8.50;99.90
52919;DHT22;38793;52.690;6.812;2024-01-30T07:50:59;8.50;99.90
52919;DHT22;38793;52.690;6.812;2024-01-30T07:53:25;8.50;99.90
52919;DHT22;38793;52.690;6.812;2024-01-30T07:55:51;8.60;99.90
52919;DHT22;38793;52.690;6.812;2024-01-30T07:58:17;8.60;99.90
52919;DHT22;38793;52.690;6.812;2024-01-30T08:00:43;8.50;99.90
52919;DHT22;38793;52.690;6.812;2024-01-30T08:03:08;8.60;99.90
52919;DHT22;38793;52.690;6.812;2024-01-30T08:05:34;8.60;99.90
52919;DHT22;38793;52.690;6.812;2024-01-30T08:07:59;8.60;99.90
52919;DHT22;38793;52.690;6.812;2024-01-30T08:10:25;8.70;99.90
52919;DHT22;38793;52.690;6.812;2024-01-30T08:12:50;8.70;99.90
52919;DHT22;38793;52.690;6.812;2024-01-30T08:15:16;8.70;99.90
52919;DHT22;38793;52.690;6.812;2024-01-30T08:17:42;8.70;99.90
52919;DHT22;38793;52.690;6.812;2024-01-30T08:20:08;8.70;99.90
52919;DHT22;38793;52.690;6.812;2024-01-30T08:22:37;8.70;99.90
52919;DHT22;38793;52.690;6.812;2024-01-30T08:25:03;8.70;99.90
52919;DHT22;38793;52.690;6.812;2024-01-30T08:27:29;8.70;99.90
52919;DHT22;38793;52.690;6.812;2024-01-30T08:29:54;8.80;99.90
52919;DHT22;38793;52.690;6.812;2024-01-30T08:32:20;8.80;99.90
52919;DHT22;38793;52.690;6.812;2024-01-30T08:34:46;8.80;99.90
52919;DHT22;38793;52.690;6.812;2024-01-30T08:37:11;8.80;99.90
52919;DHT22;38793;52.690;6.812;2024-01-30T08:39:37;8.90;99.90
52919;DHT22;38793;52.690;6.812;2024-01-30T08:42:03;9.00;99.90
52919;DHT22;38793;52.690;6.812;2024-01-30T08:44:29;9.00;99.90
52919;DHT22;38793;52.690;6.812;2024-01-30T08:46:54;9.00;99.90
52919;DHT22;38793;52.690;6.812;2024-01-30T08:49:20;9.00;99.90
52919;DHT22;38793;52.690;6.812;2024-01-30T08:51:45;9.00;99.90
52919;DHT22;38793;52.690;6.812;2024-01-30T08:54:11;9.10;99.90
52919;DHT22;38793;52.690;6.812;2024-01-30T08:56:37;9.10;99.90
52919;DHT22;38793;52.690;6.812;2024-01-30T08:59:02;9.10;99.90
52919;DHT22;38793;52.690;6.812;2024-01-30T09:01:28;9.20;99.90
52919;DHT22;38793;52.690;6.812;2024-01-30T09:03:54;9.20;99.90
52919;DHT22;38793;52.690;6.812;2024-01-30T09:06:19;9.30;99.90
52919;DHT22;38793;52.690;6.812;2024-01-30T09:08:45;9.30;99.90
52919;DHT22;38793;52.690;6.812;2024-01-30T09:11:15;9.30;99.90
52919;DHT22;38793;52.690;6.812;2024-01-30T09:13:41;9.30;99.90
52919;DHT22;38793;52.690;6.812;2024-01-30T09:16:07;9.40;99.90
52919;DHT22;38793;52.690;6.812;2024-01-30T09:18:33;9.40;99.90
52919;DHT22;38793;52.690;6.812;2024-01-30T09:20:59;9.40;99.90
52919;DHT22;38793;52.690;6.812;2024-01-30T09:23:26;9.40;99.90
52919;DHT22;38793;52.690;6.812;2024-01-30T09:25:52;9.40;99.90
52919;DHT22;38793;52.690;6.812;2024-01-30T09:28:17;9.40;99.90
52919;DHT22;38793;52.690;6.812;2024-01-30T09:30:43;9.40;99.90
52919;DHT22;38793;52.690;6.812;2024-01-30T09:33:09;9.40;99.90
52919;DHT22;38793;52.690;6.812;2024-01-30T09:35:35;9.40;99.90
52919;DHT22;38793;52.690;6.812;2024-01-30T09:38:02;9.40;99.90
52919;DHT22;38793;52.690;6.812;2024-01-30T09:40:28;9.50;99.90
52919;DHT22;38793;52.690;6.812;2024-01-30T09:42:54;9.50;99.90
52919;DHT22;38793;52.690;6.812;2024-01-30T09:45:23;9.50;99.90
52919;DHT22;38793;52.690;6.812;2024-01-30T09:47:49;9.60;99.90
52919;DHT22;38793;52.690;6.812;2024-01-30T09:50:16;9.60;99.90
52919;DHT22;38793;52.690;6.812;2024-01-30T09:52:43;9.60;99.90
52919;DHT22;38793;52.690;6.812;2024-01-30T09:55:09;9.70;99.90
52919;DHT22;38793;52.690;6.812;2024-01-30T09:57:35;9.70;99.90
52919;DHT22;38793;52.690;6.812;2024-01-30T10:00:02;9.60;99.90
52919;DHT22;38793;52.690;6.812;2024-01-30T10:02:28;9.70;99.90
52919;DHT22;38793;52.690;6.812;2024-01-30T10:04:54;9.70;99.90
52919;DHT22;38793;52.690;6.812;2024-01-30T10:07:19;9.60;99.90
52919;DHT22;38793;52.690;6.812;2024-01-30T10:09:45;9.70;99.90
52919;DHT22;38793;52.690;6.812;2024-01-30T10:12:12;9.70;99.90
52919;DHT22;38793;52.690;6.812;2024-01-30T10:14:38;9.70;99.90
52919;DHT22;38793;52.690;6.812;2024-01-30T10:17:05;9.80;99.90
52919;DHT22;38793;52.690;6.812;2024-01-30T10:19:31;9.80;99.90
52919;DHT22;38793;52.690;6.812;2024-01-30T10:21:57;9.80;99.90
52919;DHT22;38793;52.690;6.812;2024-01-30T10:24:26;9.90;99.90
52919;DHT22;38793;52.690;6.812;2024-01-30T10:26:52;9.90;99.90
52919;DHT22;38793;52.690;6.812;2024-01-30T10:29:18;9.90;99.90
52919;DHT22;38793;52.690;6.812;2024-01-30T10:31:44;9.90;99.90
52919;DHT22;38793;52.690;6.812;2024-01-30T10:34:10;9.90;99.90
52919;DHT22;38793;52.690;6.812;2024-01-30T10:36:40;10.00;99.90
52919;DHT22;38793;52.690;6.812;2024-01-30T10:39:08;10.00;99.90
52919;DHT22;38793;52.690;6.812;2024-01-30T10:41:42;10.10;99.90
52919;DHT22;38793;52.690;6.812;2024-01-30T10:44:09;10.10;99.90
52919;DHT22;38793;52.690;6.812;2024-01-30T10:46:38;10.10;99.90
52919;DHT22;38793;52.690;6.812;2024-01-30T10:49:04;10.20;99.90
52919;DHT22;38793;52.690;6.812;2024-01-30T10:51:31;10.20;99.90
52919;DHT22;38793;52.690;6.812;2024-01-30T10:53:57;10.20;99.90
52919;DHT22;38793;52.690;6.812;2024-01-30T10:56:24;10.30;99.90
52919;DHT22;38793;52.690;6.812;2024-01-30T10:58:51;10.30;99.90
52919;DHT22;38793;52.690;6.812;2024-01-30T11:01:23;10.30;99.90
52919;DHT22;38793;52.690;6.812;2024-01-30T11:03:51;10.40;99.90
52919;DHT22;38793;52.690;6.812;2024-01-30T11:06:17;10.40;99.90
52919;DHT22;38793;52.690;6.812;2024-01-30T11:08:45;10.40;99.90
52919;DHT22;38793;52.690;6.812;2024-01-30T11:11:11;10.40;99.90
52919;DHT22;38793;52.690;6.812;2024-01-30T11:13:37;10.40;99.90
52919;DHT22;38793;52.690;6.812;2024-01-30T11:16:04;10.40;99.90
52919;DHT22;38793;52.690;6.812;2024-01-30T11:18:31;10.40;99.90
52919;DHT22;38793;52.690;6.812;2024-01-30T11:20:57;10.40;99.90
52919;DHT22;38793;52.690;6.812;2024-01-30T11:23:23;10.50;99.90
52919;DHT22;38793;52.690;6.812;2024-01-30T11:25:49;10.50;99.90
52919;DHT22;38793;52.690;6.812;2024-01-30T11:28:17;10.50;99.90
52919;DHT22;38793;52.690;6.812;2024-01-30T11:30:44;10.50;99.90
52919;DHT22;38793;52.690;6.812;2024-01-30T11:33:13;10.50;99.90
52919;DHT22;38793;52.690;6.812;2024-01-30T11:35:44;10.60;99.90
52919;DHT22;38793;52.690;6.812;2024-01-30T11:38:11;10.60;99.90
52919;DHT22;38793;52.690;6.812;2024-01-30T11:40:38;10.60;99.90
52919;DHT22;38793;52.690;6.812;2024-01-30T11:43:06;10.70;99.90
52919;DHT22;38793;52.690;6.812;2024-01-30T11:45:32;10.70;99.90
52919;DHT22;38793;52.690;6.812;2024-01-30T11:47:58;10.70;99.90
52919;DHT22;38793;52.690;6.812;2024-01-30T11:50:33;10.70;99.90
52919;DHT22;38793;52.690;6.812;2024-01-30T11:52:59;10.70;99.90
52919;DHT22;38793;52.690;6.812;2024-01-30T11:55:25;10.70;99.90
52919;DHT22;38793;52.690;6.812;2024-01-30T11:57:54;10.70;99.90
52919;DHT22;38793;52.690;6.812;2024-01-30T12:00:20;10.70;99.90
52919;DHT22;38793;52.690;6.812;2024-01-30T12:02:53;10.70;99.90
52919;DHT22;38793;52.690;6.812;2024-01-30T12:05:24;10.70;99.90
52919;DHT22;38793;52.690;6.812;2024-01-30T12:07:50;10.80;99.90
52919;DHT22;38793;52.690;6.812;2024-01-30T12:10:16;10.80;99.90
52919;DHT22;38793;52.690;6.812;2024-01-30T12:12:47;10.80;99.90
52919;DHT22;38793;52.690;6.812;2024-01-30T12:15:13;10.80;99.90
52919;DHT22;38793;52.690;6.812;2024-01-30T12:17:40;10.80;99.90
52919;DHT22;38793;52.690;6.812;2024-01-30T12:20:19;10.90;99.90
52919;DHT22;38793;52.690;6.812;2024-01-30T12:22:47;10.90;99.90
52919;DHT22;38793;52.690;6.812;2024-01-30T12:25:15;11.00;99.90
52919;DHT22;38793;52.690;6.812;2024-01-30T12:27:46;11.10;99.90
52919;DHT22;38793;52.690;6.812;2024-01-30T12:30:13;11.60;99.90
52919;DHT22;38793;52.690;6.812;2024-01-30T12:32:40;11.90;99.90
52919;DHT22;38793;52.690;6.812;2024-01-30T12:35:14;12.00;99.90
52919;DHT22;38793;52.690;6.812;2024-01-30T12:37:40;12.10;99.90
52919;DHT22;38793;52.690;6.812;2024-01-30T12:40:07;12.10;99.90
52919;DHT22;38793;52.690;6.812;2024-01-30T12:42:33;12.10;99.90
52919;DHT22;38793;52.690;6.812;2024-01-30T12:44:59;12.10;99.90
52919;DHT22;38793;52.690;6.812;2024-01-30T12:47:25;12.10;99.90
52919;DHT22;38793;52.690;6.812;2024-01-30T12:49:51;12.30;99.90
52919;DHT22;38793;52.690;6.812;2024-01-30T12:52:20;12.30;99.90
52919;DHT22;38793;52.690;6.812;2024-01-30T12:54:50;12.20;99.90
52919;DHT22;38793;52.690;6.812;2024-01-30T12:57:16;12.30;99.90
52919;DHT22;38793;52.690;6.812;2024-01-30T12:59:42;12.50;99.90
52919;DHT22;38793;52.690;6.812;2024-01-30T13:02:08;12.70;99.90
52919;DHT22;38793;52.690;6.812;2024-01-30T13:04:34;12.70;99.90
52919;DHT22;38793;52.690;6.812;2024-01-30T13:07:00;12.60;99.90
52919;DHT22;38793;52.690;6.812;2024-01-30T13:09:26;12.30;99.90
52919;DHT22;38793;52.690;6.812;2024-01-30T13:11:52;12.00;99.90
52919;DHT22;38793;52.690;6.812;2024-01-30T13:14:18;11.80;99.90
52919;DHT22;38793;52.690;6.812;2024-01-30T13:16:44;11.60;99.90
52919;DHT22;38793;52.690;6.812;2024-01-30T13:19:10;11.60;99.90
52919;DHT22;38793;52.690;6.812;2024-01-30T13:21:36;11.50;99.90
52919;DHT22;38793;52.690;6.812;2024-01-30T13:24:02;11.40;99.90
52919;DHT22;38793;52.690;6.812;2024-01-30T13:26:27;11.40;99.90
52919;DHT22;38793;52.690;6.812;2024-01-30T13:28:53;11.30;99.90
52919;DHT22;38793;52.690;6.812;2024-01-30T13:31:19;11.20;99.90
52919;DHT22;38793;52.690;6.812;2024-01-30T13:33:45;11.10;99.90
52919;DHT22;38793;52.690;6.812;2024-01-30T13:36:11;11.00;99.90
52919;DHT22;38793;52.690;6.812;2024-01-30T13:38:37;11.00;99.90
52919;DHT22;38793;52.690;6.812;2024-01-30T13:41:03;11.00;99.90
52919;DHT22;38793;52.690;6.812;2024-01-30T13:43:29;11.10;99.90
52919;DHT22;38793;52.690;6.812;2024-01-30T13:45:54;11.10;99.90
52919;DHT22;38793;52.690;6.812;2024-01-30T13:48:20;11.10;99.90
52919;DHT22;38793;52.690;6.812;2024-01-30T13:50:47;11.10;99.90
52919;DHT22;38793;52.690;6.812;2024-01-30T13:53:13;11.10;99.90
52919;DHT22;38793;52.690;6.812;2024-01-30T13:55:39;11.60;99.90
52919;DHT22;38793;52.690;6.812;2024-01-30T13:58:05;11.70;99.90
52919;DHT22;38793;52.690;6.812;2024-01-30T14:00:31;11.70;99.90
52919;DHT22;38793;52.690;6.812;2024-01-30T14:02:57;11.50;99.90
52919;DHT22;38793;52.690;6.812;2024-01-30T14:05:26;11.40;99.90
52919;DHT22;38793;52.690;6.812;2024-01-30T14:07:53;11.20;99.90
52919;DHT22;38793;52.690;6.812;2024-01-30T14:10:18;11.00;99.90
52919;DHT22;38793;52.690;6.812;2024-01-30T14:12:44;10.80;99.90
52919;DHT22;38793;52.690;6.812;2024-01-30T14:15:11;10.70;99.90
52919;DHT22;38793;52.690;6.812;2024-01-30T14:17:38;10.50;99.90
52919;DHT22;38793;52.690;6.812;2024-01-30T14:20:04;10.50;99.90
52919;DHT22;38793;52.690;6.812;2024-01-30T14:22:31;10.40;99.90
52919;DHT22;38793;52.690;6.812;2024-01-30T14:24:56;10.40;99.90
52919;DHT22;38793;52.690;6.812;2024-01-30T14:27:22;10.30;99.90
52919;DHT22;38793;52.690;6.812;2024-01-30T14:29:48;10.30;99.90
52919;DHT22;38793;52.690;6.812;2024-01-30T14:32:13;10.30;99.90
52919;DHT22;38793;52.690;6.812;2024-01-30T14:34:39;10.30;99.90
52919;DHT22;38793;52.690;6.812;2024-01-30T14:37:05;10.20;99.90
52919;DHT22;38793;52.690;6.812;2024-01-30T14:39:31;10.20;99.90
52919;DHT22;38793;52.690;6.812;2024-01-30T14:41:57;10.20;99.90
52919;DHT22;38793;52.690;6.812;2024-01-30T14:44:23;10.20;99.90
52919;DHT22;38793;52.690;6.812;2024-01-30T14:46:49;10.20;99.90
52919;DHT22;38793;52.690;6.812;2024-01-30T14:49:14;10.20;99.90
52919;DHT22;38793;52.690;6.812;2024-01-30T14:51:41;10.20;99.90
52919;DHT22;38793;52.690;6.812;2024-01-30T14:54:07;10.20;99.90
52919;DHT22;38793;52.690;6.812;2024-01-30T14:56:32;10.10;99.90
52919;DHT22;38793;52.690;6.812;2024-01-30T14:58:58;10.10;99.90
52919;DHT22;38793;52.690;6.812;2024-01-30T15:01:24;10.10;99.90
52919;DHT22;38793;52.690;6.812;2024-01-30T15:03:50;10.10;99.90
52919;DHT22;38793;52.690;6.812;2024-01-30T15:06:17;10.00;99.90
52919;DHT22;38793;52.690;6.812;2024-01-30T15:08:43;10.00;99.90
52919;DHT22;38793;52.690;6.812;2024-01-30T15:11:09;10.00;99.90
52919;DHT22;38793;52.690;6.812;2024-01-30T15:13:34;9.90;99.90
52919;DHT22;38793;52.690;6.812;2024-01-30T15:16:00;9.90;99.90
52919;DHT22;38793;52.690;6.812;2024-01-30T15:18:28;9.90;99.90
52919;DHT22;38793;52.690;6.812;2024-01-30T15:20:54;9.90;99.90
52919;DHT22;38793;52.690;6.812;2024-01-30T15:23:19;9.80;99.90
52919;DHT22;38793;52.690;6.812;2024-01-30T15:25:45;9.70;99.90
52919;DHT22;38793;52.690;6.812;2024-01-30T15:28:11;9.60;99.90
52919;DHT22;38793;52.690;6.812;2024-01-30T15:30:36;9.60;99.90
52919;DHT22;38793;52.690;6.812;2024-01-30T15:33:02;9.50;99.90
52919;DHT22;38793;52.690;6.812;2024-01-30T15:35:28;9.40;99.90